sensor_id;sensor_type;location;lat;lon;timestamp;temperature;humidity
61000;SHT31;46879;45.658;11.814;2023-03-25T00:01:30;19.06;73.11
61000;SHT31;46879;45.658;11.814;2023-03-25T00:06:32;19.05;73.02
61000;SHT31;46879;45.658;11.814;2023-03-25T00:11:36;19.06;72.95
61000;SHT31;46879;45.658;11.814;2023-03-25T00:16:36;19.04;72.86
61000;SHT31;46879;45.658;11.814;2023-03-25T00:21:37;19.02;72.75
61000;SHT31;46879;45.658;11.814;2023-03-25T00:26:39;19.02;72.68
61000;SHT31;46879;45.658;11.814;2023-03-25T00:31:42;19.04;72.58
61000;SHT31;46879;45.658;11.814;2023-03-25T00:36:43;19.01;72.48
61000;SHT31;46879;45.658;11.814;2023-03-25T00:41:44;19.01;72.40
61000;SHT31;46879;45.658;11.814;2023-03-25T00:46:45;19.09;72.47
61000;SHT31;46879;45.658;11.814;2023-03-25T00:51:46;19.06;72.57
61000;SHT31;46879;45.658;11.814;2023-03-25T00:56:49;19.08;72.71
61000;SHT31;46879;45.658;11.814;2023-03-25T01:01:49;19.06;72.62
61000;SHT31;46879;45.658;11.814;2023-03-25T01:06:52;19.05;72.85
61000;SHT31;46879;45.658;11.814;2023-03-25T01:11:54;19.04;72.97
61000;SHT31;46879;45.658;11.814;2023-03-25T01:16:57;19.04;72.77
61000;SHT31;46879;45.658;11.814;2023-03-25T01:21:57;19.02;72.98
61000;SHT31;46879;45.658;11.814;2023-03-25T01:26:58;19.04;72.94
61000;SHT31;46879;45.658;11.814;2023-03-25T01:31:58;19.04;73.22
61000;SHT31;46879;45.658;11.814;2023-03-25T01:36:59;19.05;73.47
61000;SHT31;46879;45.658;11.814;2023-03-25T01:42:00;19.05;73.47
61000;SHT31;46879;45.658;11.814;2023-03-25T01:47:02;19.04;73.54
61000;SHT31;46879;45.658;11.814;2023-03-25T01:52:12;19.04;73.73
61000;SHT31;46879;45.658;11.814;2023-03-25T01:57:17;19.06;74.01
61000;SHT31;46879;45.658;11.814;2023-03-25T02:02:19;19.04;73.97
61000;SHT31;46879;45.658;11.814;2023-03-25T02:07:20;19.02;73.96
61000;SHT31;46879;45.658;11.814;2023-03-25T02:12:20;19.06;74.16
61000;SHT31;46879;45.658;11.814;2023-03-25T02:40:00;19.05;74.94
61000;SHT31;46879;45.658;11.814;2023-03-25T02:45:29;19.08;75.22
61000;SHT31;46879;45.658;11.814;2023-03-25T02:50:39;19.06;75.27
61000;SHT31;46879;45.658;11.814;2023-03-25T02:55:41;19.08;75.46
61000;SHT31;46879;45.658;11.814;2023-03-25T03:00:43;19.11;75.53
61000;SHT31;46879;45.658;11.814;2023-03-25T03:05:47;19.09;75.68
61000;SHT31;46879;45.658;11.814;2023-03-25T03:11:14;19.14;75.71
61000;SHT31;46879;45.658;11.814;2023-03-25T03:16:35;19.11;75.62
61000;SHT31;46879;45.658;11.814;2023-03-25T03:22:00;19.09;75.82
61000;SHT31;46879;45.658;11.814;2023-03-25T03:27:12;19.08;75.52
61000;SHT31;46879;45.658;11.814;2023-03-25T03:32:21;19.06;75.82
61000;SHT31;46879;45.658;11.814;2023-03-25T03:37:33;19.08;75.58
61000;SHT31;46879;45.658;11.814;2023-03-25T03:42:44;19.08;75.80
61000;SHT31;46879;45.658;11.814;2023-03-25T03:47:52;19.11;75.84
61000;SHT31;46879;45.658;11.814;2023-03-25T03:53:13;19.08;75.90
61000;SHT31;46879;45.658;11.814;2023-03-25T03:58:24;19.08;75.80
61000;SHT31;46879;45.658;11.814;2023-03-25T04:03:33;19.06;75.84
61000;SHT31;46879;45.658;11.814;2023-03-25T04:08:48;19.05;75.95
61000;SHT31;46879;45.658;11.814;2023-03-25T04:13:53;19.08;75.94
61000;SHT31;46879;45.658;11.814;2023-03-25T04:18:56;19.09;76.01
61000;SHT31;46879;45.658;11.814;2023-03-25T04:23:57;19.08;76.09
61000;SHT31;46879;45.658;11.814;2023-03-25T04:29:01;19.08;76.23
61000;SHT31;46879;45.658;11.814;2023-03-25T04:34:02;19.09;76.28
61000;SHT31;46879;45.658;11.814;2023-03-25T04:39:03;19.08;76.66
61000;SHT31;46879;45.658;11.814;2023-03-25T04:44:04;19.09;76.91
61000;SHT31;46879;45.658;11.814;2023-03-25T04:49:18;19.11;76.93
61000;SHT31;46879;45.658;11.814;2023-03-25T04:54:20;19.09;76.70
61000;SHT31;46879;45.658;11.814;2023-03-25T04:59:22;19.11;76.96
61000;SHT31;46879;45.658;11.814;2023-03-25T05:04:23;19.12;77.03
61000;SHT31;46879;45.658;11.814;2023-03-25T05:09:24;19.12;76.81
61000;SHT31;46879;45.658;11.814;2023-03-25T05:14:24;19.12;76.96
61000;SHT31;46879;45.658;11.814;2023-03-25T05:19:25;19.12;77.00
61000;SHT31;46879;45.658;11.814;2023-03-25T05:24:28;19.12;76.76
61000;SHT31;46879;45.658;11.814;2023-03-25T05:29:29;19.09;76.99
61000;SHT31;46879;45.658;11.814;2023-03-25T05:34:33;19.08;76.93
61000;SHT31;46879;45.658;11.814;2023-03-25T05:39:33;19.11;76.80
61000;SHT31;46879;45.658;11.814;2023-03-25T05:44:34;19.09;76.85
61000;SHT31;46879;45.658;11.814;2023-03-25T05:49:34;19.09;76.78
61000;SHT31;46879;45.658;11.814;2023-03-25T05:54:35;19.08;77.01
61000;SHT31;46879;45.658;11.814;2023-03-25T05:59:41;19.08;77.02
61000;SHT31;46879;45.658;11.814;2023-03-25T06:04:42;19.09;77.04
61000;SHT31;46879;45.658;11.814;2023-03-25T06:09:43;19.09;76.80
61000;SHT31;46879;45.658;11.814;2023-03-25T06:14:46;19.11;76.91
61000;SHT31;46879;45.658;11.814;2023-03-25T06:19:48;19.09;77.15
61000;SHT31;46879;45.658;11.814;2023-03-25T06:24:49;19.12;76.73
61000;SHT31;46879;45.658;11.814;2023-03-25T06:29:51;19.11;77.18
61000;SHT31;46879;45.658;11.814;2023-03-25T06:34:52;19.12;77.18
61000;SHT31;46879;45.658;11.814;2023-03-25T06:39:52;19.15;77.10
61000;SHT31;46879;45.658;11.814;2023-03-25T06:44:55;19.15;77.29
61000;SHT31;46879;45.658;11.814;2023-03-25T06:49:56;19.14;77.38
61000;SHT31;46879;45.658;11.814;2023-03-25T06:54:57;19.14;77.20
61000;SHT31;46879;45.658;11.814;2023-03-25T06:59:57;19.11;77.30
61000;SHT31;46879;45.658;11.814;2023-03-25T07:04:58;19.14;77.36
61000;SHT31;46879;45.658;11.814;2023-03-25T07:09:58;19.15;77.17
61000;SHT31;46879;45.658;11.814;2023-03-25T07:14:59;19.16;77.31
61000;SHT31;46879;45.658;11.814;2023-03-25T07:20:00;19.14;77.19
61000;SHT31;46879;45.658;11.814;2023-03-25T07:25:01;19.14;77.38
61000;SHT31;46879;45.658;11.814;2023-03-25T07:30:02;19.14;77.17
61000;SHT31;46879;45.658;11.814;2023-03-25T07:35:04;19.15;77.14
61000;SHT31;46879;45.658;11.814;2023-03-25T07:40:06;19.16;77.26
61000;SHT31;46879;45.658;11.814;2023-03-25T07:45:07;19.16;77.29
61000;SHT31;46879;45.658;11.814;2023-03-25T07:50:08;19.15;77.27
61000;SHT31;46879;45.658;11.814;2023-03-25T07:55:09;19.14;77.18
61000;SHT31;46879;45.658;11.814;2023-03-25T08:00:10;19.18;77.35
61000;SHT31;46879;45.658;11.814;2023-03-25T08:05:11;19.14;77.22
61000;SHT31;46879;45.658;11.814;2023-03-25T08:10:11;19.15;77.20
61000;SHT31;46879;45.658;11.814;2023-03-25T08:15:14;19.15;77.19
61000;SHT31;46879;45.658;11.814;2023-03-25T08:20:17;19.14;77.24
61000;SHT31;46879;45.658;11.814;2023-03-25T08:25:18;19.15;77.18
61000;SHT31;46879;45.658;11.814;2023-03-25T08:30:18;19.16;77.06
61000;SHT31;46879;45.658;11.814;2023-03-25T08:35:21;19.15;77.11
61000;SHT31;46879;45.658;11.814;2023-03-25T08:40:23;19.15;77.13
61000;SHT31;46879;45.658;11.814;2023-03-25T08:45:23;19.16;77.15
61000;SHT31;46879;45.658;11.814;2023-03-25T08:50:24;19.16;77.19
61000;SHT31;46879;45.658;11.814;2023-03-25T08:55:25;19.19;77.09
61000;SHT31;46879;45.658;11.814;2023-03-25T09:00:26;19.20;77.06
61000;SHT31;46879;45.658;11.814;2023-03-25T09:05:26;19.18;77.02
61000;SHT31;46879;45.658;11.814;2023-03-25T09:10:27;19.18;77.15
61000;SHT31;46879;45.658;11.814;2023-03-25T09:15:28;19.18;77.25
61000;SHT31;46879;45.658;11.814;2023-03-25T09:20:28;19.19;77.18
61000;SHT31;46879;45.658;11.814;2023-03-25T09:25:29;19.20;77.18
61000;SHT31;46879;45.658;11.814;2023-03-25T09:30:29;19.20;77.27
61000;SHT31;46879;45.658;11.814;2023-03-25T09:35:30;19.22;77.28
61000;SHT31;46879;45.658;11.814;2023-03-25T09:40:31;19.19;77.35
61000;SHT31;46879;45.658;11.814;2023-03-25T09:45:42;19.22;77.39
61000;SHT31;46879;45.658;11.814;2023-03-25T09:50:44;19.22;73.76
61000;SHT31;46879;45.658;11.814;2023-03-25T09:55:46;19.23;74.73
61000;SHT31;46879;45.658;11.814;2023-03-25T10:06:15;19.29;72.28
61000;SHT31;46879;45.658;11.814;2023-03-25T10:17:19;19.30;70.67
61000;SHT31;46879;45.658;11.814;2023-03-25T10:28:06;19.29;70.26
61000;SHT31;46879;45.658;11.814;2023-03-25T10:33:42;19.30;70.26
61000;SHT31;46879;45.658;11.814;2023-03-25T10:38:47;19.30;70.51
61000;SHT31;46879;45.658;11.814;2023-03-25T10:43:50;19.32;70.12
61000;SHT31;46879;45.658;11.814;2023-03-25T10:48:54;19.29;70.34
61000;SHT31;46879;45.658;11.814;2023-03-25T10:53:55;19.34;69.98
61000;SHT31;46879;45.658;11.814;2023-03-25T10:58:57;19.33;69.86
61000;SHT31;46879;45.658;11.814;2023-03-25T11:04:02;19.33;69.86
61000;SHT31;46879;45.658;11.814;2023-03-25T11:14:12;19.36;69.83
61000;SHT31;46879;45.658;11.814;2023-03-25T11:19:27;19.37;69.78
61000;SHT31;46879;45.658;11.814;2023-03-25T11:24:42;19.39;69.87
61000;SHT31;46879;45.658;11.814;2023-03-25T11:29:59;19.34;70.05
61000;SHT31;46879;45.658;11.814;2023-03-25T11:35:28;19.39;69.54
61000;SHT31;46879;45.658;11.814;2023-03-25T11:40:29;19.36;69.45
61000;SHT31;46879;45.658;11.814;2023-03-25T11:45:38;19.34;69.56
61000;SHT31;46879;45.658;11.814;2023-03-25T11:50:49;19.36;68.94
61000;SHT31;46879;45.658;11.814;2023-03-25T11:55:56;19.34;68.17
61000;SHT31;46879;45.658;11.814;2023-03-25T12:01:06;19.34;67.82
61000;SHT31;46879;45.658;11.814;2023-03-25T12:11:27;19.37;67.76
61000;SHT31;46879;45.658;11.814;2023-03-25T12:16:57;19.37;67.11
61000;SHT31;46879;45.658;11.814;2023-03-25T12:27:53;19.42;67.36
61000;SHT31;46879;45.658;11.814;2023-03-25T12:39:00;19.36;64.14
61000;SHT31;46879;45.658;11.814;2023-03-25T12:44:13;19.33;65.66
61000;SHT31;46879;45.658;11.814;2023-03-25T12:55:30;19.37;65.71
61000;SHT31;46879;45.658;11.814;2023-03-25T13:06:43;19.40;66.28
61000;SHT31;46879;45.658;11.814;2023-03-25T13:11:53;19.39;65.70
61000;SHT31;46879;45.658;11.814;2023-03-25T13:17:00;19.37;66.25
61000;SHT31;46879;45.658;11.814;2023-03-25T13:22:11;19.39;65.95
61000;SHT31;46879;45.658;11.814;2023-03-25T13:27:13;19.36;66.34
61000;SHT31;46879;45.658;11.814;2023-03-25T13:32:22;19.32;66.36
61000;SHT31;46879;45.658;11.814;2023-03-25T13:37:37;19.34;66.51
61000;SHT31;46879;45.658;11.814;2023-03-25T13:48:24;19.34;66.42
61000;SHT31;46879;45.658;11.814;2023-03-25T13:53:56;19.32;66.39
61000;SHT31;46879;45.658;11.814;2023-03-25T13:59:19;19.32;66.40
61000;SHT31;46879;45.658;11.814;2023-03-25T14:10:38;19.32;66.24
61000;SHT31;46879;45.658;11.814;2023-03-25T14:15:55;19.30;66.41
61000;SHT31;46879;45.658;11.814;2023-03-25T14:21:33;19.29;66.44
61000;SHT31;46879;45.658;11.814;2023-03-25T14:26:33;19.29;66.75
61000;SHT31;46879;45.658;11.814;2023-03-25T14:31:36;19.29;66.85
61000;SHT31;46879;45.658;11.814;2023-03-25T14:42:09;19.27;67.18
61000;SHT31;46879;45.658;11.814;2023-03-25T14:53:05;19.27;67.46
61000;SHT31;46879;45.658;11.814;2023-03-25T14:58:23;19.30;67.51
61000;SHT31;46879;45.658;11.814;2023-03-25T15:03:40;19.26;67.61
61000;SHT31;46879;45.658;11.814;2023-03-25T15:08:55;19.25;67.56
61000;SHT31;46879;45.658;11.814;2023-03-25T15:14:01;19.26;67.80
61000;SHT31;46879;45.658;11.814;2023-03-25T15:19:20;19.26;67.63
61000;SHT31;46879;45.658;11.814;2023-03-25T15:24:46;19.26;67.68
61000;SHT31;46879;45.658;11.814;2023-03-25T15:41:28;19.23;67.66
61000;SHT31;46879;45.658;11.814;2023-03-25T15:58:01;19.23;67.53
61000;SHT31;46879;45.658;11.814;2023-03-25T16:08:16;19.20;67.53
61000;SHT31;46879;45.658;11.814;2023-03-25T16:13:22;19.22;67.50
61000;SHT31;46879;45.658;11.814;2023-03-25T16:18:24;19.22;67.50
61000;SHT31;46879;45.658;11.814;2023-03-25T16:23:25;19.22;67.60
61000;SHT31;46879;45.658;11.814;2023-03-25T16:28:47;19.22;67.55
61000;SHT31;46879;45.658;11.814;2023-03-25T16:33:47;19.19;67.55
61000;SHT31;46879;45.658;11.814;2023-03-25T16:38:48;19.22;67.59
61000;SHT31;46879;45.658;11.814;2023-03-25T16:43:49;19.18;67.62
61000;SHT31;46879;45.658;11.814;2023-03-25T16:48:52;19.18;67.64
61000;SHT31;46879;45.658;11.814;2023-03-25T16:53:54;19.18;67.71
61000;SHT31;46879;45.658;11.814;2023-03-25T16:59:06;19.19;67.71
61000;SHT31;46879;45.658;11.814;2023-03-25T17:04:16;19.19;67.71
61000;SHT31;46879;45.658;11.814;2023-03-25T17:09:23;19.20;67.72
61000;SHT31;46879;45.658;11.814;2023-03-25T17:14:34;19.18;67.73
61000;SHT31;46879;45.658;11.814;2023-03-25T17:19:45;19.18;67.58
61000;SHT31;46879;45.658;11.814;2023-03-25T17:24:56;19.20;67.59
61000;SHT31;46879;45.658;11.814;2023-03-25T17:30:13;19.18;67.63
61000;SHT31;46879;45.658;11.814;2023-03-25T17:35:27;19.20;67.57
61000;SHT31;46879;45.658;11.814;2023-03-25T17:40:30;19.20;67.62
61000;SHT31;46879;45.658;11.814;2023-03-25T17:45:31;19.20;67.51
61000;SHT31;46879;45.658;11.814;2023-03-25T17:50:31;19.19;67.43
61000;SHT31;46879;45.658;11.814;2023-03-25T17:55:32;19.20;67.45
61000;SHT31;46879;45.658;11.814;2023-03-25T18:00:33;19.19;67.43
61000;SHT31;46879;45.658;11.814;2023-03-25T18:05:35;19.18;67.50
61000;SHT31;46879;45.658;11.814;2023-03-25T18:10:36;19.19;67.46
61000;SHT31;46879;45.658;11.814;2023-03-25T18:15:38;19.16;67.41
61000;SHT31;46879;45.658;11.814;2023-03-25T18:20:38;19.18;67.54
61000;SHT31;46879;45.658;11.814;2023-03-25T18:25:40;19.18;67.85
61000;SHT31;46879;45.658;11.814;2023-03-25T18:30:58;19.18;68.11
61000;SHT31;46879;45.658;11.814;2023-03-25T18:35:59;19.18;68.25
61000;SHT31;46879;45.658;11.814;2023-03-25T18:41:00;19.16;68.37
61000;SHT31;46879;45.658;11.814;2023-03-25T18:46:01;19.16;68.43
61000;SHT31;46879;45.658;11.814;2023-03-25T18:51:02;19.16;68.47
61000;SHT31;46879;45.658;11.814;2023-03-25T18:56:03;19.19;68.60
61000;SHT31;46879;45.658;11.814;2023-03-25T19:01:05;19.16;68.63
61000;SHT31;46879;45.658;11.814;2023-03-25T19:06:12;19.16;68.41
61000;SHT31;46879;45.658;11.814;2023-03-25T19:11:13;19.12;68.21
61000;SHT31;46879;45.658;11.814;2023-03-25T19:16:15;19.15;69.52
61000;SHT31;46879;45.658;11.814;2023-03-25T19:21:18;19.30;71.65
61000;SHT31;46879;45.658;11.814;2023-03-25T19:26:18;19.46;71.71
61000;SHT31;46879;45.658;11.814;2023-03-25T19:31:19;19.47;71.39
61000;SHT31;46879;45.658;11.814;2023-03-25T19:36:20;19.37;71.48
61000;SHT31;46879;45.658;11.814;2023-03-25T19:41:22;19.32;72.29
61000;SHT31;46879;45.658;11.814;2023-03-25T19:46:23;19.29;72.20
61000;SHT31;46879;45.658;11.814;2023-03-25T19:51:23;19.30;72.09
61000;SHT31;46879;45.658;11.814;2023-03-25T19:56:24;19.27;72.17
61000;SHT31;46879;45.658;11.814;2023-03-25T20:01:25;19.25;72.27
61000;SHT31;46879;45.658;11.814;2023-03-25T20:06:26;19.25;71.95
61000;SHT31;46879;45.658;11.814;2023-03-25T20:11:27;19.23;71.55
61000;SHT31;46879;45.658;11.814;2023-03-25T20:16:28;19.26;73.47
61000;SHT31;46879;45.658;11.814;2023-03-25T20:21:30;19.25;74.17
61000;SHT31;46879;45.658;11.814;2023-03-25T20:26:30;19.25;74.12
61000;SHT31;46879;45.658;11.814;2023-03-25T20:31:31;19.25;73.70
61000;SHT31;46879;45.658;11.814;2023-03-25T20:36:33;19.27;73.40
61000;SHT31;46879;45.658;11.814;2023-03-25T20:41:33;19.23;73.21
61000;SHT31;46879;45.658;11.814;2023-03-25T20:46:34;19.23;72.86
61000;SHT31;46879;45.658;11.814;2023-03-25T20:51:35;19.23;72.65
61000;SHT31;46879;45.658;11.814;2023-03-25T20:56:36;19.23;72.51
61000;SHT31;46879;45.658;11.814;2023-03-25T21:01:37;19.23;72.40
61000;SHT31;46879;45.658;11.814;2023-03-25T21:06:38;19.20;72.43
61000;SHT31;46879;45.658;11.814;2023-03-25T21:11:38;19.19;72.23
61000;SHT31;46879;45.658;11.814;2023-03-25T21:16:40;19.22;72.22
61000;SHT31;46879;45.658;11.814;2023-03-25T21:21:41;19.20;72.09
61000;SHT31;46879;45.658;11.814;2023-03-25T21:26:42;19.22;72.01
61000;SHT31;46879;45.658;11.814;2023-03-25T21:31:42;19.18;72.01
61000;SHT31;46879;45.658;11.814;2023-03-25T21:36:43;19.18;71.92
61000;SHT31;46879;45.658;11.814;2023-03-25T21:41:44;19.18;71.85
61000;SHT31;46879;45.658;11.814;2023-03-25T21:46:44;19.18;71.76
61000;SHT31;46879;45.658;11.814;2023-03-25T21:51:45;19.15;71.57
61000;SHT31;46879;45.658;11.814;2023-03-25T21:56:49;19.15;71.44
61000;SHT31;46879;45.658;11.814;2023-03-25T22:01:53;19.15;71.31
61000;SHT31;46879;45.658;11.814;2023-03-25T22:06:55;19.18;72.05
61000;SHT31;46879;45.658;11.814;2023-03-25T22:11:56;19.19;74.03
61000;SHT31;46879;45.658;11.814;2023-03-25T22:16:56;19.22;75.02
61000;SHT31;46879;45.658;11.814;2023-03-25T22:21:57;19.15;75.21
61000;SHT31;46879;45.658;11.814;2023-03-25T22:26:57;19.18;74.98
61000;SHT31;46879;45.658;11.814;2023-03-25T22:31:58;19.16;74.90
61000;SHT31;46879;45.658;11.814;2023-03-25T22:37:06;19.19;74.94
61000;SHT31;46879;45.658;11.814;2023-03-25T22:42:07;19.18;74.90
61000;SHT31;46879;45.658;11.814;2023-03-25T22:47:07;19.18;74.44
61000;SHT31;46879;45.658;11.814;2023-03-25T22:52:08;19.18;74.20
61000;SHT31;46879;45.658;11.814;2023-03-25T22:57:08;19.16;74.04
61000;SHT31;46879;45.658;11.814;2023-03-25T23:02:10;19.19;73.95
61000;SHT31;46879;45.658;11.814;2023-03-25T23:07:13;19.16;73.78
61000;SHT31;46879;45.658;11.814;2023-03-25T23:12:19;19.15;73.78
61000;SHT31;46879;45.658;11.814;2023-03-25T23:17:24;19.15;73.68
61000;SHT31;46879;45.658;11.814;2023-03-25T23:22:26;19.15;73.50
61000;SHT31;46879;45.658;11.814;2023-03-25T23:27:27;19.15;73.42
61000;SHT31;46879;45.658;11.814;2023-03-25T23:32:32;19.15;73.43
61000;SHT31;46879;45.658;11.814;2023-03-25T23:37:33;19.12;73.56
61000;SHT31;46879;45.658;11.814;2023-03-25T23:42:34;19.12;73.62
61000;SHT31;46879;45.658;11.814;2023-03-25T23:47:34;19.12;73.61
61000;SHT31;46879;45.658;11.814;2023-03-25T23:52:35;19.11;73.61
61000;SHT31;46879;45.658;11.814;2023-03-25T23:57:36;19.12;73.61
